createdAt,value
2022-11-13T00:02:25.733Z,4.10
2022-11-13T00:05:11.286Z,5.00
2022-11-13T00:07:56.795Z,3.42
2022-11-13T00:10:42.353Z,3.30
2022-11-13T00:13:30.555Z,6.35
2022-11-13T00:16:18.954Z,3.15
2022-11-13T00:19:04.371Z,4.28
2022-11-13T00:21:49.795Z,3.58
2022-11-13T00:24:35.122Z,3.03
2022-11-13T00:27:20.542Z,3.22
2022-11-13T00:30:06.540Z,3.05
2022-11-13T00:32:51.929Z,3.28
2022-11-13T00:35:37.198Z,3.10
2022-11-13T00:38:22.708Z,3.80
2022-11-13T00:41:08.181Z,3.97
2022-11-13T00:43:53.719Z,3.75
2022-11-13T00:46:39.190Z,2.70
2022-11-13T00:49:24.853Z,2.40
2022-11-13T00:52:10.131Z,2.88
2022-11-13T00:54:55.880Z,2.58
2022-11-13T00:57:41.417Z,2.38
2022-11-13T01:00:26.978Z,2.60
2022-11-13T01:03:14.375Z,2.10
2022-11-13T01:06:00.417Z,2.65
2022-11-13T01:08:46.320Z,2.88
2022-11-13T01:11:31.745Z,3.05
2022-11-13T01:14:17.060Z,3.33
2022-11-13T01:17:02.609Z,2.92
2022-11-13T01:19:48.479Z,2.72
2022-11-13T01:22:33.975Z,4.00
2022-11-13T01:25:19.625Z,2.28
2022-11-13T01:28:05.172Z,2.72
2022-11-13T01:30:50.537Z,2.63
2022-11-13T01:33:36.046Z,3.42
2022-11-13T01:36:26.786Z,3.10
2022-11-13T01:39:13.030Z,3.30
2022-11-13T01:41:58.503Z,3.10
2022-11-13T01:44:54.955Z,2.92
2022-11-13T01:47:40.206Z,3.00
2022-11-13T01:50:26.280Z,2.58
2022-11-13T01:53:11.828Z,3.38
2022-11-13T01:55:57.152Z,2.95
2022-11-13T01:58:46.290Z,2.28
2022-11-13T02:01:31.945Z,3.40
2022-11-13T02:04:17.162Z,2.92
2022-11-13T02:07:13.234Z,2.40
2022-11-13T02:09:59.277Z,2.60
2022-11-13T02:12:51.840Z,3.70
2022-11-13T02:15:37.454Z,1.70
2022-11-13T02:18:23.953Z,2.60
2022-11-13T02:21:13.428Z,2.55
2022-11-13T02:24:17.442Z,2.50
2022-11-13T02:27:07.405Z,1.83
2022-11-13T02:29:52.748Z,1.98
2022-11-13T02:32:47.182Z,2.00
2022-11-13T02:35:36.902Z,2.10
2022-11-13T02:38:22.091Z,2.13
2022-11-13T02:41:07.586Z,1.40
2022-11-13T02:43:53.077Z,2.20
2022-11-13T02:46:38.658Z,2.55
2022-11-13T02:49:24.040Z,2.20
2022-11-13T02:52:09.568Z,1.95
2022-11-13T02:54:54.765Z,2.05
2022-11-13T02:57:40.153Z,1.73
2022-11-13T03:00:25.826Z,1.92
2022-11-13T03:03:11.335Z,2.22
2022-11-13T03:05:56.799Z,2.58
2022-11-13T03:08:42.324Z,2.20
2022-11-13T03:11:27.766Z,2.92
2022-11-13T03:14:13.327Z,1.73
2022-11-13T03:16:58.851Z,2.88
2022-11-13T03:19:44.478Z,2.40
2022-11-13T03:22:29.988Z,1.80
2022-11-13T03:25:16.282Z,1.98
2022-11-13T03:28:01.839Z,1.75
2022-11-13T03:30:48.172Z,2.78
2022-11-13T03:33:33.634Z,3.40
2022-11-13T03:36:19.843Z,2.63
2022-11-13T03:39:05.406Z,3.00
2022-11-13T03:41:50.906Z,2.47
2022-11-13T03:44:36.305Z,3.35
2022-11-13T03:47:21.768Z,3.67
2022-11-13T03:50:07.776Z,4.00
2022-11-13T03:52:53.169Z,3.28
2022-11-13T03:55:38.920Z,4.68
2022-11-13T03:58:24.148Z,4.82
2022-11-13T04:01:09.574Z,3.55
2022-11-13T04:03:55.264Z,5.32
2022-11-13T04:06:40.640Z,4.82
2022-11-13T04:09:26.115Z,5.35
2022-11-13T04:12:11.686Z,4.32
2022-11-13T04:14:57.008Z,4.35
2022-11-13T04:17:42.500Z,4.78
2022-11-13T04:20:28.222Z,4.93
2022-11-13T04:23:15.919Z,6.57
2022-11-13T04:26:01.354Z,4.20
2022-11-13T04:28:46.650Z,3.92
2022-11-13T04:31:32.233Z,4.57
2022-11-13T04:34:17.669Z,4.80
2022-11-13T04:37:03.480Z,5.20
2022-11-13T04:39:48.788Z,5.03
2022-11-13T04:42:49.309Z,4.57
2022-11-13T04:45:35.514Z,4.68
2022-11-13T04:48:20.899Z,5.03
2022-11-13T04:51:06.954Z,5.22
2022-11-13T04:53:52.538Z,4.40
2022-11-13T04:56:38.124Z,3.83
2022-11-13T04:59:24.528Z,3.70
2022-11-13T05:02:09.808Z,4.18
2022-11-13T05:04:56.081Z,3.05
2022-11-13T05:07:43.091Z,3.40
2022-11-13T05:10:28.446Z,3.85
2022-11-13T05:13:14.029Z,3.30
2022-11-13T05:16:05.035Z,3.78
2022-11-13T05:18:50.606Z,3.15
2022-11-13T05:21:37.231Z,4.30
2022-11-13T05:24:22.609Z,3.20
2022-11-13T05:27:11.586Z,2.30
2022-11-13T05:30:01.597Z,2.63
2022-11-13T05:32:46.844Z,3.58
2022-11-13T05:35:32.490Z,3.08
2022-11-13T05:38:17.819Z,3.58
2022-11-13T05:41:18.310Z,3.85
2022-11-13T05:46:49.030Z,3.20
2022-11-13T05:49:34.668Z,3.08
2022-11-13T05:52:20.149Z,2.80
2022-11-13T05:55:06.385Z,4.35
2022-11-13T05:57:51.744Z,4.40
2022-11-13T06:00:37.642Z,3.47
2022-11-13T06:03:22.867Z,2.78
2022-11-13T06:06:10.658Z,3.25
2022-11-13T06:08:58.107Z,3.17
2022-11-13T06:11:44.182Z,3.72
2022-11-13T06:14:29.608Z,3.75
2022-11-13T06:17:15.084Z,4.47
2022-11-13T06:20:00.500Z,5.15
2022-11-13T06:22:46.116Z,4.57
2022-11-13T06:25:31.770Z,4.30
2022-11-13T06:28:17.256Z,5.85
2022-11-13T06:31:08.650Z,6.47
2022-11-13T06:33:54.341Z,7.15
2022-11-13T06:36:39.709Z,6.55
2022-11-13T06:39:25.208Z,6.78
2022-11-13T06:42:10.676Z,9.50
2022-11-13T06:44:56.235Z,5.88
2022-11-13T06:47:41.652Z,9.65
2022-11-13T06:50:27.227Z,6.50
2022-11-13T06:53:12.668Z,5.68
2022-11-13T06:55:58.591Z,5.47
2022-11-13T06:58:44.505Z,4.75
2022-11-13T07:01:30.244Z,6.07
2022-11-13T07:04:15.660Z,7.03
2022-11-13T07:07:01.328Z,5.55
2022-11-13T07:09:46.657Z,4.97
2022-11-13T07:12:32.144Z,6.05
2022-11-13T07:15:17.711Z,6.32
2022-11-13T07:18:04.485Z,6.53
2022-11-13T07:20:49.738Z,6.22
2022-11-13T07:23:37.099Z,7.43
2022-11-13T07:26:22.885Z,9.80
2022-11-13T07:29:08.101Z,7.97
2022-11-13T07:31:53.675Z,13.20
2022-11-13T07:34:38.956Z,12.35
2022-11-13T07:37:24.213Z,12.65
2022-11-13T07:40:10.953Z,12.13
2022-11-13T07:43:00.730Z,11.13
2022-11-13T07:45:46.344Z,8.40
2022-11-13T07:48:32.192Z,5.25
2022-11-13T07:51:18.104Z,7.28
2022-11-13T07:54:03.319Z,5.88
2022-11-13T07:56:48.781Z,4.72
2022-11-13T07:59:34.723Z,6.07
2022-11-13T08:02:25.104Z,6.05
2022-11-13T08:05:11.871Z,6.40
2022-11-13T08:07:57.388Z,5.72
2022-11-13T08:10:42.960Z,7.75
2022-11-13T08:13:28.635Z,10.48
2022-11-13T08:16:14.381Z,16.77
2022-11-13T08:18:59.763Z,16.50
2022-11-13T08:21:45.267Z,13.13
2022-11-13T08:24:30.788Z,14.73
2022-11-13T08:27:16.298Z,14.88
2022-11-13T08:30:01.980Z,14.65
2022-11-13T08:32:48.264Z,12.70
2022-11-13T08:35:33.545Z,11.43
2022-11-13T08:38:19.061Z,10.23
2022-11-13T08:41:09.377Z,9.48
2022-11-13T08:46:40.271Z,8.55
2022-11-13T08:49:25.673Z,7.72
2022-11-13T08:52:10.961Z,10.70
2022-11-13T08:54:56.410Z,9.77
2022-11-13T08:57:41.927Z,9.38
2022-11-13T09:00:29.014Z,7.20
2022-11-13T09:03:14.144Z,9.52
2022-11-13T09:05:59.672Z,7.25
2022-11-13T09:08:45.031Z,6.35
2022-11-13T09:11:30.398Z,6.90
2022-11-13T09:14:15.988Z,6.30
2022-11-13T09:17:01.780Z,5.93
2022-11-13T09:19:47.455Z,5.35
2022-11-13T09:22:33.948Z,6.40
2022-11-13T09:25:19.228Z,4.22
2022-11-13T09:28:05.945Z,6.50
2022-11-13T09:30:51.640Z,4.72
2022-11-13T09:33:37.390Z,7.53
2022-11-13T09:36:22.713Z,7.30
2022-11-13T09:39:08.373Z,4.95
2022-11-13T09:41:58.463Z,5.03
2022-11-13T09:45:07.739Z,5.55
2022-11-13T09:47:55.600Z,5.65
2022-11-13T09:50:41.696Z,7.45
2022-11-13T09:53:32.210Z,4.35
2022-11-13T09:56:26.833Z,6.35
2022-11-13T09:59:27.079Z,4.35
2022-11-13T10:02:25.143Z,5.70
2022-11-13T10:05:15.395Z,5.82
2022-11-13T10:08:26.682Z,6.47
2022-11-13T10:11:35.346Z,5.93
2022-11-13T10:14:32.166Z,5.28
2022-11-13T10:17:26.919Z,4.95
2022-11-13T10:20:37.187Z,3.88
2022-11-13T10:23:28.318Z,4.70
2022-11-13T10:26:21.283Z,5.25
2022-11-13T10:29:16.296Z,4.97
2022-11-13T10:32:24.360Z,4.55
2022-11-13T10:35:47.167Z,4.65
2022-11-13T10:38:32.709Z,6.60
2022-11-13T10:41:20.142Z,4.50
2022-11-13T10:44:07.736Z,5.07
2022-11-13T10:47:26.758Z,5.75
2022-11-13T10:50:27.698Z,6.22
2022-11-13T10:53:18.357Z,4.85
2022-11-13T10:56:21.674Z,5.68
2022-11-13T10:59:15.672Z,5.03
2022-11-13T11:02:11.977Z,5.75
2022-11-13T11:05:18.416Z,4.90
2022-11-13T11:08:09.072Z,3.88
2022-11-13T11:11:21.450Z,4.03
2022-11-13T11:14:34.143Z,5.07
2022-11-13T11:17:23.102Z,4.80
2022-11-13T11:20:23.912Z,4.95
2022-11-13T11:26:14.031Z,4.13
2022-11-13T11:29:06.647Z,5.40
2022-11-13T11:32:07.127Z,3.83
2022-11-13T11:35:20.977Z,6.15
2022-11-13T11:38:28.759Z,5.18
2022-11-13T11:41:19.276Z,4.90
2022-11-13T11:44:31.194Z,5.63
2022-11-13T11:47:18.074Z,5.43
2022-11-13T11:50:04.931Z,4.40
2022-11-13T11:53:38.303Z,4.38
2022-11-13T11:56:27.976Z,4.57
2022-11-13T11:59:20.154Z,4.15
2022-11-13T12:02:39.834Z,4.97
2022-11-13T12:05:45.131Z,4.80
2022-11-13T12:08:44.859Z,4.28
2022-11-13T12:12:10.112Z,5.13
2022-11-13T12:15:09.767Z,5.15
2022-11-13T12:18:25.561Z,4.67
2022-11-13T12:21:31.578Z,5.75
2022-11-13T12:24:37.218Z,5.22
2022-11-13T12:27:28.382Z,8.02
2022-11-13T12:30:45.966Z,7.93
2022-11-13T12:34:15.665Z,6.15
2022-11-13T12:37:05.819Z,6.25
2022-11-13T12:39:58.349Z,7.28
2022-11-13T12:42:50.647Z,10.43
2022-11-13T12:45:39.001Z,6.03
2022-11-13T12:48:32.591Z,7.93
2022-11-13T12:51:19.043Z,8.05
2022-11-13T12:54:04.957Z,7.88
2022-11-13T12:56:50.564Z,7.63
2022-11-13T12:59:42.010Z,7.95
2022-11-13T13:02:47.698Z,7.30
2022-11-13T13:05:52.941Z,6.22
2022-11-13T13:08:46.880Z,5.07
2022-11-13T13:11:55.890Z,5.65
2022-11-13T13:14:56.647Z,6.03
2022-11-13T13:17:42.534Z,5.63
2022-11-13T13:20:35.631Z,5.25
2022-11-13T13:23:29.165Z,5.45
2022-11-13T13:26:26.575Z,5.10
2022-11-13T13:29:20.925Z,5.72
2022-11-13T13:32:25.790Z,5.70
2022-11-13T13:35:20.082Z,6.30
2022-11-13T13:38:31.959Z,7.95
2022-11-13T13:41:59.091Z,6.85
2022-11-13T13:45:02.764Z,7.90
2022-11-13T13:47:50.425Z,7.95
2022-11-13T13:50:42.966Z,7.82
2022-11-13T13:53:34.159Z,7.45
2022-11-13T13:56:21.597Z,7.38
2022-11-13T13:59:25.683Z,8.30
2022-11-13T14:02:19.617Z,7.20
2022-11-13T14:05:23.689Z,7.53
2022-11-13T14:08:18.353Z,8.27
2022-11-13T14:11:17.920Z,7.00
2022-11-13T14:14:15.974Z,6.53
2022-11-13T14:17:03.779Z,6.95
2022-11-13T14:19:50.942Z,8.23
2022-11-13T14:22:36.750Z,8.25
2022-11-13T14:25:25.528Z,9.80
2022-11-13T14:28:32.183Z,8.98
2022-11-13T14:31:18.118Z,8.80
2022-11-13T14:34:14.860Z,9.02
2022-11-13T14:37:21.964Z,6.22
2022-11-13T14:40:30.453Z,7.03
2022-11-13T14:43:29.621Z,7.15
2022-11-13T14:46:33.797Z,7.05
2022-11-13T14:49:29.848Z,12.20
2022-11-13T14:52:28.933Z,14.98
2022-11-13T14:55:29.334Z,9.10
2022-11-13T14:58:15.084Z,13.25
2022-11-13T15:01:18.934Z,9.90
2022-11-13T15:04:04.534Z,10.82
2022-11-13T15:06:55.701Z,11.00
2022-11-13T15:09:41.283Z,14.57
2022-11-13T15:12:26.771Z,11.35
2022-11-13T15:15:19.012Z,9.80
2022-11-13T15:18:05.982Z,11.50
2022-11-13T15:20:51.254Z,11.45
2022-11-13T15:23:36.934Z,13.35
2022-11-13T15:26:22.561Z,16.48
2022-11-13T15:29:08.232Z,13.70
2022-11-13T15:31:53.546Z,14.73
2022-11-13T15:34:38.932Z,16.55
2022-11-13T15:37:25.103Z,15.25
2022-11-13T15:40:11.649Z,14.85
2022-11-13T15:42:59.046Z,14.65
2022-11-13T15:45:44.859Z,11.82
2022-11-13T15:48:30.221Z,11.02
2022-11-13T15:51:37.304Z,12.82
2022-11-13T15:54:25.709Z,12.02
2022-11-13T15:57:27.994Z,13.25
2022-11-13T16:00:25.231Z,11.23
2022-11-13T16:03:12.227Z,11.10
2022-11-13T16:06:01.288Z,11.18
2022-11-13T16:08:47.025Z,13.93
2022-11-13T16:11:34.034Z,13.35
2022-11-13T16:14:24.375Z,12.80
2022-11-13T16:17:21.562Z,15.77
2022-11-13T16:20:10.454Z,30.88
2022-11-13T16:22:55.920Z,17.98
2022-11-13T16:25:41.334Z,19.23
2022-11-13T16:28:26.991Z,14.88
2022-11-13T16:31:12.720Z,14.85
2022-11-13T16:33:58.375Z,14.52
2022-11-13T16:36:44.039Z,15.77
2022-11-13T16:39:29.474Z,17.30
2022-11-13T16:42:16.140Z,18.02
2022-11-13T16:45:02.020Z,22.15
2022-11-13T16:47:47.830Z,19.77
2022-11-13T16:50:34.787Z,19.80
2022-11-13T16:53:20.392Z,21.50
2022-11-13T16:56:17.982Z,24.00
2022-11-13T16:59:03.683Z,54.13
2022-11-13T17:01:53.386Z,34.78
2022-11-13T17:04:38.807Z,24.52
2022-11-13T17:07:24.424Z,19.25
2022-11-13T17:13:18.757Z,28.17
2022-11-13T17:16:04.227Z,23.05
2022-11-13T17:18:50.428Z,18.42
2022-11-13T17:21:39.991Z,18.17
2022-11-13T17:24:28.142Z,17.00
2022-11-13T17:27:13.701Z,21.23
2022-11-13T17:29:59.256Z,20.55
2022-11-13T17:32:44.674Z,16.48
2022-11-13T17:35:30.172Z,13.63
2022-11-13T17:38:15.733Z,11.43
2022-11-13T17:41:19.539Z,15.52
2022-11-13T17:44:05.042Z,12.55
2022-11-13T17:46:50.458Z,10.13
2022-11-13T17:49:35.930Z,8.32
2022-11-13T17:52:21.486Z,7.28
2022-11-13T17:55:10.663Z,12.50
2022-11-13T17:58:00.082Z,7.90
2022-11-13T18:00:45.236Z,6.50
2022-11-13T18:03:31.183Z,6.38
2022-11-13T18:06:19.989Z,6.65
2022-11-13T18:09:06.512Z,6.35
2022-11-13T18:11:52.053Z,5.63
2022-11-13T18:14:37.525Z,5.20
2022-11-13T18:17:23.585Z,6.05
2022-11-13T18:20:09.811Z,4.97
2022-11-13T18:22:56.004Z,4.05
2022-11-13T18:25:41.154Z,5.15
2022-11-13T18:28:26.786Z,4.10
2022-11-13T18:31:17.762Z,3.97
2022-11-13T18:34:04.925Z,4.07
2022-11-13T18:36:50.601Z,4.70
2022-11-13T18:39:36.188Z,5.32
2022-11-13T18:42:21.716Z,3.40
2022-11-13T18:45:08.365Z,3.78
2022-11-13T18:47:53.753Z,4.32
2022-11-13T18:50:39.246Z,4.30
2022-11-13T18:53:24.919Z,5.65
2022-11-13T18:56:19.524Z,4.90
2022-11-13T18:59:04.650Z,4.97
2022-11-13T19:01:50.194Z,7.53
2022-11-13T19:04:36.348Z,7.30
2022-11-13T19:07:22.153Z,5.78
2022-11-13T19:10:08.005Z,5.00
2022-11-13T19:12:53.786Z,5.25
2022-11-13T19:15:39.533Z,4.47
2022-11-13T19:18:24.951Z,6.47
2022-11-13T19:21:12.872Z,6.10
2022-11-13T19:23:59.879Z,7.82
2022-11-13T19:26:45.934Z,6.25
2022-11-13T19:29:31.396Z,8.00
2022-11-13T19:32:16.988Z,10.27
2022-11-13T19:35:02.830Z,8.43
2022-11-13T19:37:48.342Z,9.43
2022-11-13T19:40:33.914Z,8.60
2022-11-13T19:43:19.313Z,9.45
2022-11-13T19:46:06.356Z,10.70
2022-11-13T19:48:52.094Z,10.77
2022-11-13T19:51:37.327Z,16.70
2022-11-13T19:54:22.867Z,11.93
2022-11-13T19:57:08.375Z,13.00
2022-11-13T19:59:53.975Z,15.13
2022-11-13T20:02:39.531Z,13.25
2022-11-13T20:05:25.073Z,11.18
2022-11-13T20:08:11.589Z,12.82
2022-11-13T20:11:05.452Z,11.38
2022-11-13T20:13:50.770Z,10.70
2022-11-13T20:16:36.317Z,11.65
2022-11-13T20:19:21.923Z,10.55
2022-11-13T20:22:07.256Z,12.60
2022-11-13T20:24:52.902Z,14.07
2022-11-13T20:27:39.907Z,13.25
2022-11-13T20:30:28.554Z,14.73
2022-11-13T20:33:21.269Z,14.77
2022-11-13T20:36:08.291Z,13.40
2022-11-13T20:38:55.936Z,15.77
2022-11-13T20:41:41.409Z,13.90
2022-11-13T20:44:26.834Z,14.15
2022-11-13T20:47:12.429Z,11.30
2022-11-13T20:49:57.889Z,10.65
2022-11-13T20:52:44.459Z,10.32
2022-11-13T20:55:30.712Z,9.80
2022-11-13T20:58:16.084Z,8.52
2022-11-13T21:01:07.128Z,9.40
2022-11-13T21:03:53.444Z,9.70
2022-11-13T21:06:38.847Z,9.25
2022-11-13T21:09:24.304Z,9.23
2022-11-13T21:12:09.857Z,10.18
2022-11-13T21:14:55.100Z,10.52
2022-11-13T21:17:40.463Z,9.05
2022-11-13T21:20:25.884Z,8.85
2022-11-13T21:23:11.498Z,8.55
2022-11-13T21:26:04.992Z,7.82
2022-11-13T21:28:55.749Z,9.88
2022-11-13T21:31:41.468Z,7.97
2022-11-13T21:34:27.066Z,8.55
2022-11-13T21:37:14.316Z,6.57
2022-11-13T21:39:59.713Z,7.93
2022-11-13T21:42:45.365Z,8.25
2022-11-13T21:45:33.909Z,6.72
2022-11-13T21:48:19.537Z,6.50
2022-11-13T21:51:05.058Z,6.35
2022-11-13T21:53:50.617Z,4.82
2022-11-13T21:56:37.695Z,4.20
2022-11-13T21:59:23.174Z,5.18
2022-11-13T22:02:11.911Z,4.18
2022-11-13T22:04:57.509Z,4.97
2022-11-13T22:07:43.031Z,4.43
2022-11-13T22:10:28.104Z,4.55
2022-11-13T22:13:13.661Z,3.65
2022-11-13T22:15:59.084Z,4.38
2022-11-13T22:18:45.015Z,5.35
2022-11-13T22:21:31.445Z,4.82
2022-11-13T22:24:16.866Z,3.78
2022-11-13T22:27:02.271Z,4.80
2022-11-13T22:29:47.622Z,5.32
2022-11-13T22:32:33.005Z,4.95
2022-11-13T22:35:18.818Z,5.82
2022-11-13T22:38:04.142Z,5.30
2022-11-13T22:40:49.545Z,5.90
2022-11-13T22:43:36.999Z,6.53
2022-11-13T22:46:24.991Z,6.38
2022-11-13T22:49:11.669Z,7.05
2022-11-13T22:51:57.051Z,5.70
2022-11-13T22:54:42.462Z,6.70
2022-11-13T22:57:27.988Z,9.38
2022-11-13T23:00:13.896Z,10.75
2022-11-13T23:03:00.876Z,16.38
2022-11-13T23:05:46.218Z,15.18
2022-11-13T23:08:32.648Z,14.75
2022-11-13T23:11:28.945Z,11.55
2022-11-13T23:14:17.166Z,7.90
2022-11-13T23:17:02.369Z,7.40
2022-11-13T23:19:47.964Z,7.65
2022-11-13T23:22:33.536Z,7.28
2022-11-13T23:25:19.343Z,6.78
2022-11-13T23:28:04.777Z,7.43
2022-11-13T23:30:50.639Z,6.72
2022-11-13T23:33:36.899Z,7.45
2022-11-13T23:36:22.242Z,6.45
2022-11-13T23:39:08.266Z,6.38
2022-11-13T23:41:53.849Z,7.20
2022-11-13T23:44:39.397Z,6.50
2022-11-13T23:47:24.943Z,6.50
2022-11-13T23:50:11.015Z,5.47
2022-11-13T23:52:56.368Z,5.97
2022-11-13T23:55:42.521Z,6.20
2022-11-13T23:58:28.143Z,5.45
